createdAt,value
2018-07-03T00:02:30.177Z,101298.39
2018-07-03T00:07:33.535Z,101302.18
2018-07-03T00:12:36.710Z,101304.73
2018-07-03T00:17:39.821Z,101302.94
2018-07-03T00:22:42.927Z,101314.43
2018-07-03T00:27:46.097Z,101307.04
2018-07-03T00:32:49.212Z,101317.16
2018-07-03T00:37:53.226Z,101312.20
2018-07-03T00:42:56.367Z,101308.26
2018-07-03T00:47:59.567Z,101309.77
2018-07-03T00:53:02.727Z,101308.72
2018-07-03T00:58:05.878Z,101306.33
2018-07-03T01:03:09.020Z,101305.62
2018-07-03T01:08:12.103Z,101306.62
2018-07-03T01:13:15.236Z,101303.34
2018-07-03T01:18:18.448Z,101310.17
2018-07-03T01:23:21.540Z,101307.30
2018-07-03T01:28:24.694Z,101305.80
2018-07-03T01:33:28.002Z,101309.83
2018-07-03T01:38:31.111Z,101309.29
2018-07-03T01:43:34.328Z,101308.84
2018-07-03T01:48:37.545Z,101306.70
2018-07-03T01:53:40.782Z,101304.78
2018-07-03T01:58:43.946Z,101314.27
2018-07-03T02:03:47.070Z,101306.70
2018-07-03T02:08:50.240Z,101306.55
2018-07-03T02:13:53.709Z,101308.89
2018-07-03T02:18:56.994Z,101297.31
2018-07-03T02:24:00.230Z,101299.62
2018-07-03T02:29:03.489Z,101304.20
2018-07-03T02:34:06.697Z,101294.20
2018-07-03T02:39:09.848Z,101291.61
2018-07-03T02:44:13.033Z,101286.09
2018-07-03T02:49:16.093Z,101292.77
2018-07-03T02:54:19.187Z,101287.34
2018-07-03T02:59:22.353Z,101294.94
2018-07-03T03:04:25.436Z,101299.08
2018-07-03T03:09:28.698Z,101304.64
2018-07-03T03:14:32.207Z,101300.52
2018-07-03T03:19:35.421Z,101302.54
2018-07-03T03:24:39.122Z,101299.52
2018-07-03T03:29:42.200Z,101297.95
2018-07-03T03:34:45.310Z,101299.88
2018-07-03T03:39:48.434Z,101301.53
2018-07-03T03:44:51.515Z,101294.45
2018-07-03T03:49:54.630Z,101301.72
2018-07-03T03:54:58.117Z,101298.64
2018-07-03T04:00:01.529Z,101299.48
2018-07-03T04:05:04.923Z,101299.88
2018-07-03T04:10:11.000Z,101297.91
2018-07-03T04:15:17.787Z,101298.11
2018-07-03T04:20:21.602Z,101304.68
2018-07-03T04:25:25.201Z,101299.25
2018-07-03T04:30:28.522Z,101285.17
2018-07-03T04:35:32.852Z,101291.76
2018-07-03T04:40:36.676Z,101289.28
2018-07-03T04:45:39.886Z,101292.77
2018-07-03T04:50:42.991Z,101299.06
2018-07-03T04:55:46.208Z,101290.59
2018-07-03T05:00:49.458Z,101286.62
2018-07-03T05:05:52.508Z,101295.50
2018-07-03T05:10:55.752Z,101294.37
2018-07-03T05:15:58.997Z,101301.17
2018-07-03T05:21:02.139Z,101293.12
2018-07-03T05:26:05.415Z,101297.67
2018-07-03T05:31:08.571Z,101293.68
2018-07-03T05:36:11.753Z,101308.97
2018-07-03T05:41:14.911Z,101302.43
2018-07-03T05:46:18.264Z,101307.00
2018-07-03T05:51:21.551Z,101312.05
2018-07-03T05:56:24.832Z,101315.83
2018-07-03T06:01:27.940Z,101320.77
2018-07-03T06:06:31.096Z,101322.65
2018-07-03T06:11:34.509Z,101309.52
2018-07-03T06:16:37.637Z,101311.41
2018-07-03T06:21:40.793Z,101312.05
2018-07-03T06:26:43.887Z,101313.20
2018-07-03T06:31:47.034Z,101313.29
2018-07-03T06:36:50.098Z,101311.17
2018-07-03T06:41:53.246Z,101306.92
2018-07-03T06:46:56.373Z,101304.26
2018-07-03T06:51:59.522Z,101320.95
2018-07-03T06:57:02.658Z,101312.86
2018-07-03T07:02:07.322Z,101314.70
2018-07-03T07:07:10.493Z,101310.91
2018-07-03T07:12:13.632Z,101319.25
2018-07-03T07:17:17.661Z,101310.69
2018-07-03T07:22:20.836Z,101316.99
2018-07-03T07:27:24.019Z,101318.41
2018-07-03T07:32:27.163Z,101311.81
2018-07-03T07:37:30.332Z,101313.98
2018-07-03T07:42:33.549Z,101311.20
2018-07-03T07:47:36.659Z,101314.47
2018-07-03T07:52:39.817Z,101326.91
2018-07-03T07:57:42.920Z,101311.45
2018-07-03T08:02:46.115Z,101307.45
2018-07-03T08:07:49.430Z,101318.55
2018-07-03T08:12:52.595Z,101320.02
2018-07-03T08:17:55.743Z,101309.66
2018-07-03T08:22:58.972Z,101306.60
2018-07-03T08:28:02.111Z,101302.52
2018-07-03T08:33:05.313Z,101297.94
2018-07-03T08:38:08.474Z,101300.35
2018-07-03T08:43:11.602Z,101299.45
2018-07-03T08:48:14.789Z,101291.59
2018-07-03T08:53:18.026Z,101283.35
2018-07-03T08:58:21.149Z,101292.09
2018-07-03T09:03:24.301Z,101284.87
2018-07-03T09:08:27.560Z,101279.79
2018-07-03T09:13:30.736Z,101264.31
2018-07-03T09:18:33.848Z,101262.69
2018-07-03T09:23:37.058Z,101275.34
2018-07-03T09:28:40.165Z,101257.87
2018-07-03T09:33:43.274Z,101273.20
2018-07-03T09:38:46.394Z,101270.47
2018-07-03T09:43:49.567Z,101263.73
2018-07-03T09:48:52.777Z,101262.99
2018-07-03T09:53:55.847Z,101246.01
2018-07-03T09:58:59.000Z,101244.81
2018-07-03T10:04:02.158Z,101248.33
2018-07-03T10:09:07.304Z,101236.55
2018-07-03T10:14:10.492Z,101241.66
2018-07-03T10:19:13.583Z,101250.60
2018-07-03T10:24:16.636Z,101250.05
2018-07-03T10:29:19.743Z,101239.95
2018-07-03T10:34:22.875Z,101236.25
2018-07-03T10:39:26.018Z,101223.72
2018-07-03T10:44:29.211Z,101233.47
2018-07-03T10:49:32.392Z,101238.77
2018-07-03T10:54:35.577Z,101219.46
2018-07-03T10:59:38.745Z,101226.34
2018-07-03T11:04:41.798Z,101212.16
2018-07-03T11:09:45.000Z,101209.50
2018-07-03T11:14:48.125Z,101213.97
2018-07-03T11:19:51.365Z,101214.36
2018-07-03T11:24:54.401Z,101202.27
2018-07-03T11:29:57.559Z,101195.09
2018-07-03T11:35:00.753Z,101197.13
2018-07-03T11:40:04.008Z,101192.19
2018-07-03T11:45:07.371Z,101184.42
2018-07-03T11:50:10.492Z,101187.15
2018-07-03T11:55:13.848Z,101185.59
2018-07-03T12:00:17.686Z,101189.52
2018-07-03T12:05:20.853Z,101177.49
2018-07-03T12:10:24.140Z,101168.42
2018-07-03T12:15:30.641Z,101174.11
2018-07-03T12:20:34.313Z,101170.33
2018-07-03T12:25:37.453Z,101163.25
2018-07-03T12:30:40.637Z,101162.66
2018-07-03T12:35:43.806Z,101160.33
2018-07-03T12:40:46.998Z,101158.86
2018-07-03T12:45:56.957Z,101156.45
2018-07-03T12:51:00.925Z,101147.83
2018-07-03T12:56:04.242Z,101149.44
2018-07-03T13:01:07.549Z,101157.52
2018-07-03T13:06:11.201Z,101150.67
2018-07-03T13:11:14.591Z,101146.48
2018-07-03T13:16:17.741Z,101135.52
2018-07-03T13:21:20.903Z,101139.54
2018-07-03T13:26:24.141Z,101140.70
2018-07-03T13:31:27.520Z,101136.20
2018-07-03T13:36:30.845Z,101138.61
2018-07-03T13:41:34.115Z,101131.84
2018-07-03T13:46:37.284Z,101126.18
2018-07-03T13:51:40.508Z,101116.38
2018-07-03T13:56:43.792Z,101112.47
2018-07-03T14:01:46.977Z,101106.91
2018-07-03T14:06:50.100Z,101108.45
2018-07-03T14:11:53.210Z,101101.95
2018-07-03T14:16:56.906Z,101105.80
2018-07-03T14:22:00.393Z,101107.50
2018-07-03T14:27:03.602Z,101091.58
2018-07-03T14:32:07.129Z,101091.98
2018-07-03T14:37:10.428Z,101086.96
2018-07-03T14:42:13.607Z,101086.30
2018-07-03T14:47:16.752Z,101086.33
2018-07-03T14:52:19.936Z,101091.13
2018-07-03T14:57:23.243Z,101091.55
2018-07-03T15:02:26.413Z,101084.98
2018-07-03T15:07:29.816Z,101086.62
2018-07-03T15:12:33.447Z,101088.23
2018-07-03T15:17:36.874Z,101085.91
2018-07-03T15:22:40.172Z,101084.64
2018-07-03T15:27:43.382Z,101082.13
2018-07-03T15:32:46.570Z,101082.48
2018-07-03T15:37:49.675Z,101079.91
2018-07-03T15:42:52.852Z,101079.05
2018-07-03T15:47:56.123Z,101078.61
2018-07-03T15:52:59.466Z,101076.55
2018-07-03T15:58:02.735Z,101062.81
2018-07-03T16:03:17.040Z,101061.53
2018-07-03T16:08:45.000Z,101052.62
2018-07-03T16:13:48.272Z,101051.16
2018-07-03T16:18:51.364Z,101047.34
2018-07-03T16:23:54.486Z,101044.91
2018-07-03T16:28:57.714Z,101046.34
2018-07-03T16:34:01.135Z,101049.53
2018-07-03T16:39:08.026Z,101034.87
2018-07-03T16:44:13.249Z,101034.70
2018-07-03T16:49:16.389Z,101028.30
2018-07-03T16:54:19.499Z,101022.08
2018-07-03T16:59:22.674Z,101016.66
2018-07-03T17:04:25.869Z,101024.08
2018-07-03T17:09:29.264Z,101021.54
2018-07-03T17:14:32.489Z,101028.62
2018-07-03T17:19:35.684Z,101026.19
2018-07-03T17:24:39.270Z,101038.23
2018-07-03T17:29:42.397Z,101028.52
2018-07-03T17:34:45.501Z,101032.77
2018-07-03T17:40:00.158Z,101032.47
2018-07-03T17:45:40.815Z,101030.22
2018-07-03T17:50:43.908Z,101031.11
2018-07-03T17:55:47.062Z,101031.36
2018-07-03T18:00:50.201Z,101029.13
2018-07-03T18:05:53.358Z,101030.82
2018-07-03T18:10:57.488Z,101032.79
2018-07-03T18:16:00.816Z,101025.27
2018-07-03T18:21:04.171Z,101023.39
2018-07-03T18:26:08.699Z,101025.09
2018-07-03T18:31:12.378Z,101022.86
2018-07-03T18:36:16.442Z,101026.77
2018-07-03T18:41:19.732Z,101026.34
2018-07-03T18:46:23.248Z,101031.22
2018-07-03T18:51:26.380Z,101030.38
2018-07-03T18:56:29.776Z,101027.09
2018-07-03T19:01:33.063Z,101029.74
2018-07-03T19:06:36.442Z,101027.36
2018-07-03T19:11:39.667Z,101030.42
2018-07-03T19:16:42.827Z,101036.73
2018-07-03T19:21:45.970Z,101043.37
2018-07-03T19:26:49.110Z,101044.55
2018-07-03T19:31:52.292Z,101056.97
2018-07-03T19:36:55.368Z,101054.41
2018-07-03T19:41:58.828Z,101048.36
2018-07-03T19:47:02.183Z,101058.98
2018-07-03T19:52:05.573Z,101061.45
2018-07-03T19:57:08.803Z,101065.48
2018-07-03T20:02:12.080Z,101071.94
2018-07-03T20:07:15.186Z,101071.48
2018-07-03T20:12:18.295Z,101077.63
2018-07-03T20:17:21.420Z,101074.17
2018-07-03T20:22:24.548Z,101077.70
2018-07-03T20:27:28.055Z,101088.09
2018-07-03T20:32:31.243Z,101089.06
2018-07-03T20:37:56.935Z,101083.80
2018-07-03T20:43:00.137Z,101090.19
2018-07-03T20:48:03.327Z,101080.20
2018-07-03T20:53:06.472Z,101081.42
2018-07-03T20:58:09.637Z,101083.26
2018-07-03T21:03:12.769Z,101078.64
2018-07-03T21:08:15.924Z,101083.31
2018-07-03T21:13:18.976Z,101088.50
2018-07-03T21:18:22.078Z,101096.58
2018-07-03T21:23:25.261Z,101089.17
2018-07-03T21:28:28.474Z,101087.06
2018-07-03T21:33:31.619Z,101093.55
2018-07-03T21:38:34.728Z,101092.11
2018-07-03T21:43:38.135Z,101102.59
2018-07-03T21:48:41.239Z,101101.66
2018-07-03T21:53:44.363Z,101100.85
2018-07-03T21:58:47.553Z,101106.28
2018-07-03T22:03:50.626Z,101108.63
2018-07-03T22:08:53.719Z,101104.40
2018-07-03T22:13:56.958Z,101110.13
2018-07-03T22:19:00.247Z,101109.84
2018-07-03T22:24:03.398Z,101114.48
2018-07-03T22:29:06.472Z,101119.18
2018-07-03T22:34:10.408Z,101112.20
2018-07-03T22:39:13.574Z,101110.50
2018-07-03T22:44:16.689Z,101107.22
2018-07-03T22:49:19.820Z,101111.23
2018-07-03T22:54:23.032Z,101107.48
2018-07-03T22:59:26.079Z,101109.41
2018-07-03T23:04:29.196Z,101114.40
2018-07-03T23:09:32.317Z,101111.99
2018-07-03T23:14:35.573Z,101111.03
2018-07-03T23:19:38.714Z,101112.61
2018-07-03T23:24:41.869Z,101119.07
2018-07-03T23:29:45.008Z,101115.86
2018-07-03T23:34:48.147Z,101119.17
2018-07-03T23:39:51.317Z,101122.56
2018-07-03T23:44:54.384Z,101122.20
2018-07-03T23:50:08.776Z,101125.61
2018-07-03T23:55:23.185Z,101121.81
